createdAt,value
2023-05-08T17:16:44.292Z,6.30
2023-05-08T17:21:48.346Z,5.88
2023-05-08T17:26:52.591Z,6.00
2023-05-08T17:31:58.799Z,5.93
2023-05-08T17:37:04.091Z,5.70
2023-05-08T17:42:08.459Z,5.88
2023-05-08T17:47:14.701Z,5.78
2023-05-08T17:52:18.821Z,5.60
2023-05-08T17:57:22.895Z,5.63
2023-05-08T18:02:28.919Z,5.30
2023-05-08T18:07:33.202Z,5.82
2023-05-08T18:12:37.564Z,5.32
2023-05-08T18:17:43.835Z,5.95
2023-05-08T18:25:24.477Z,5.60
2023-05-08T18:30:02.552Z,5.30
2023-05-08T18:35:10.321Z,5.70
2023-05-08T18:40:15.381Z,5.60
2023-05-08T18:45:20.359Z,5.55
2023-05-08T18:50:26.625Z,5.30
2023-05-08T18:55:30.689Z,5.10
2023-05-08T19:00:34.989Z,6.00
2023-05-08T19:05:42.497Z,5.70
2023-05-08T19:10:46.875Z,5.68
2023-05-08T19:15:51.201Z,5.57
2023-05-08T19:20:57.294Z,5.63
2023-05-08T19:26:01.426Z,5.65
2023-05-08T19:31:05.501Z,5.35
2023-05-08T19:36:11.721Z,5.63
2023-05-08T19:41:17.409Z,5.60
2023-05-08T19:46:22.053Z,5.57
2023-05-08T19:51:28.361Z,5.90
2023-05-08T19:56:32.463Z,5.47
2023-05-08T20:01:37.187Z,5.17
2023-05-08T20:06:45.132Z,6.33
2023-05-08T20:11:49.463Z,5.87
2023-05-08T20:16:53.900Z,6.10
2023-05-08T20:21:59.977Z,6.20
2023-05-08T20:27:04.398Z,6.80
2023-05-08T20:32:13.734Z,6.20
2023-05-08T20:37:22.697Z,6.77
2023-05-08T20:42:26.866Z,6.67
2023-05-08T20:47:30.970Z,7.23
2023-05-08T20:52:38.469Z,6.23
2023-05-08T20:57:43.595Z,7.00
2023-05-08T21:02:47.803Z,7.27
2023-05-08T21:07:57.854Z,7.23
2023-05-08T21:13:02.068Z,7.60
